createdAt,value
2022-08-11T00:00:21.072Z,18.40
2022-08-11T00:03:08.882Z,18.34
2022-08-11T00:05:56.537Z,18.31
2022-08-11T00:08:42.509Z,18.30
2022-08-11T00:11:41.545Z,18.27
2022-08-11T00:14:36.746Z,18.20
2022-08-11T00:17:28.142Z,18.15
2022-08-11T00:20:16.941Z,18.18
2022-08-11T00:23:08.594Z,18.12
2022-08-11T00:25:54.456Z,18.18
2022-08-11T00:28:41.542Z,17.99
2022-08-11T00:31:30.005Z,18.03
2022-08-11T00:34:18.519Z,17.97
2022-08-11T00:37:07.687Z,17.97
2022-08-11T00:39:55.004Z,17.79
2022-08-11T00:43:03.483Z,17.91
2022-08-11T00:46:03.824Z,17.91
2022-08-11T00:48:57.859Z,17.87
2022-08-11T00:52:07.529Z,17.92
2022-08-11T00:55:04.533Z,17.90
2022-08-11T00:58:10.696Z,17.89
2022-08-11T01:01:09.600Z,17.85
2022-08-11T01:04:14.604Z,17.81
2022-08-11T01:08:00.446Z,17.79
2022-08-11T01:11:16.057Z,17.82
2022-08-11T01:14:18.764Z,17.81
2022-08-11T01:17:57.151Z,17.80
2022-08-11T01:21:03.896Z,17.87
2022-08-11T01:24:16.342Z,17.89
2022-08-11T01:27:18.812Z,17.87
2022-08-11T01:30:30.058Z,17.85
2022-08-11T01:33:45.522Z,17.79
2022-08-11T01:36:44.142Z,17.76
2022-08-11T01:39:51.378Z,17.74
2022-08-11T01:43:00.972Z,17.67
2022-08-11T01:45:50.252Z,17.66
2022-08-11T01:48:49.778Z,17.70
2022-08-11T01:51:51.940Z,17.67
2022-08-11T01:54:37.139Z,17.66
2022-08-11T01:57:38.625Z,17.66
2022-08-11T02:00:28.929Z,17.75
2022-08-11T02:03:45.719Z,17.67
2022-08-11T02:06:56.616Z,17.71
2022-08-11T02:09:56.513Z,17.73
2022-08-11T02:12:53.051Z,17.69
2022-08-11T02:15:56.763Z,17.59
2022-08-11T02:19:08.782Z,17.62
2022-08-11T02:22:24.910Z,17.61
2022-08-11T02:25:22.445Z,17.52
2022-08-11T02:28:34.666Z,17.52
2022-08-11T02:32:10.980Z,17.48
2022-08-11T02:35:13.133Z,17.40
2022-08-11T02:38:18.581Z,17.35
2022-08-11T02:41:34.586Z,17.30
2022-08-11T02:44:49.163Z,17.20
2022-08-11T02:48:41.082Z,17.10
2022-08-11T02:51:39.259Z,17.08
2022-08-11T02:54:35.985Z,17.09
2022-08-11T02:57:29.453Z,16.91
2022-08-11T03:00:17.703Z,16.95
2022-08-11T03:03:18.326Z,16.91
2022-08-11T03:06:12.510Z,16.78
2022-08-11T03:09:18.021Z,16.79
2022-08-11T03:12:53.130Z,16.70
2022-08-11T03:16:40.207Z,16.64
2022-08-11T03:19:57.188Z,16.51
2022-08-11T03:23:20.165Z,16.55
2022-08-11T03:26:38.538Z,16.48
2022-08-11T03:29:34.270Z,16.45
2022-08-11T03:32:29.875Z,16.44
2022-08-11T03:35:21.545Z,16.46
2022-08-11T03:38:15.259Z,16.35
2022-08-11T03:42:01.259Z,16.41
2022-08-11T03:45:02.196Z,16.34
2022-08-11T03:47:55.614Z,16.41
2022-08-11T03:50:55.668Z,16.39
2022-08-11T03:53:56.138Z,16.37
2022-08-11T03:56:58.556Z,16.30
2022-08-11T04:00:20.654Z,16.39
2022-08-11T04:03:08.538Z,16.36
2022-08-11T04:06:30.499Z,16.36
2022-08-11T04:09:46.163Z,16.36
2022-08-11T04:13:03.899Z,16.18
2022-08-11T04:16:11.624Z,16.25
2022-08-11T04:19:39.989Z,16.19
2022-08-11T04:22:49.541Z,16.18
2022-08-11T04:26:15.865Z,16.14
2022-08-11T04:29:36.045Z,15.98
2022-08-11T04:32:37.197Z,15.91
2022-08-11T04:35:30.606Z,15.87
2022-08-11T04:38:34.384Z,15.83
2022-08-11T04:42:31.024Z,15.85
2022-08-11T04:45:33.757Z,15.87
2022-08-11T04:49:27.507Z,15.88
2022-08-11T04:52:38.462Z,15.81
2022-08-11T04:55:48.911Z,15.88
2022-08-11T04:59:37.233Z,15.86
2022-08-11T05:02:38.026Z,15.99
2022-08-11T05:06:06.287Z,16.02
2022-08-11T05:08:54.452Z,16.06
2022-08-11T05:12:01.980Z,16.06
2022-08-11T05:15:11.143Z,16.08
2022-08-11T05:18:36.045Z,16.07
2022-08-11T05:21:45.298Z,16.05
2022-08-11T05:25:00.871Z,16.04
2022-08-11T05:28:29.342Z,16.07
2022-08-11T05:31:35.196Z,16.08
2022-08-11T05:34:54.868Z,16.16
2022-08-11T05:38:03.258Z,16.24
2022-08-11T05:41:12.486Z,16.42
2022-08-11T05:44:20.897Z,16.54
2022-08-11T05:47:26.535Z,16.62
2022-08-11T05:50:33.101Z,16.70
2022-08-11T05:53:45.727Z,16.77
2022-08-11T05:56:34.170Z,16.83
2022-08-11T05:59:19.746Z,16.88
2022-08-11T06:02:07.471Z,16.95
2022-08-11T06:04:58.019Z,16.98
2022-08-11T06:07:48.564Z,17.10
2022-08-11T06:10:41.281Z,17.19
2022-08-11T06:13:27.570Z,17.29
2022-08-11T06:16:18.033Z,17.39
2022-08-11T06:19:04.297Z,17.47
2022-08-11T06:21:51.875Z,17.54
2022-08-11T06:24:41.601Z,17.58
2022-08-11T06:27:30.393Z,17.69
2022-08-11T06:30:15.442Z,17.79
2022-08-11T06:33:01.727Z,17.88
2022-08-11T06:36:07.968Z,18.08
2022-08-11T06:38:59.245Z,18.22
2022-08-11T06:42:13.829Z,18.31
2022-08-11T06:45:11.958Z,18.38
2022-08-11T06:48:00.735Z,18.45
2022-08-11T06:51:12.545Z,18.50
2022-08-11T06:54:05.666Z,18.65
2022-08-11T06:57:29.813Z,18.79
2022-08-11T07:00:29.361Z,18.90
2022-08-11T07:03:19.611Z,19.11
2022-08-11T07:06:34.504Z,19.30
2022-08-11T07:10:09.699Z,19.41
2022-08-11T07:13:38.169Z,19.62
2022-08-11T07:16:28.567Z,19.66
2022-08-11T07:19:36.098Z,19.82
2022-08-11T07:22:43.269Z,19.94
2022-08-11T07:25:50.382Z,20.04
2022-08-11T07:28:58.244Z,20.16
2022-08-11T07:31:53.986Z,20.31
2022-08-11T07:34:45.374Z,20.48
2022-08-11T07:37:33.845Z,20.46
2022-08-11T07:40:23.810Z,20.64
2022-08-11T07:43:09.812Z,20.80
2022-08-11T07:46:14.625Z,20.86
2022-08-11T07:49:21.268Z,21.03
2022-08-11T07:52:26.523Z,21.20
2022-08-11T07:55:17.208Z,21.28
2022-08-11T07:58:21.695Z,21.40
2022-08-11T08:01:30.421Z,21.55
2022-08-11T08:04:36.730Z,21.64
2022-08-11T08:07:41.929Z,21.75
2022-08-11T08:10:46.761Z,21.78
2022-08-11T08:13:53.082Z,21.88
2022-08-11T08:16:58.066Z,22.02
2022-08-11T08:19:47.873Z,22.16
2022-08-11T08:22:38.752Z,22.26
2022-08-11T08:25:29.516Z,22.30
2022-08-11T08:28:20.768Z,22.43
2022-08-11T08:31:06.390Z,22.53
2022-08-11T08:33:52.506Z,22.56
2022-08-11T08:36:39.871Z,22.72
2022-08-11T08:39:24.914Z,22.86
2022-08-11T08:42:13.193Z,23.01
2022-08-11T08:45:15.741Z,23.21
2022-08-11T08:48:08.601Z,23.30
2022-08-11T08:51:21.914Z,23.46
2022-08-11T08:54:11.351Z,23.56
2022-08-11T08:56:58.855Z,23.68
2022-08-11T08:59:48.742Z,23.71
2022-08-11T09:02:35.327Z,23.88
2022-08-11T09:05:21.351Z,23.97
2022-08-11T09:08:06.640Z,24.05
2022-08-11T09:11:14.032Z,24.26
2022-08-11T09:14:05.059Z,24.39
2022-08-11T09:16:53.562Z,24.53
2022-08-11T09:19:38.881Z,24.64
2022-08-11T09:22:42.927Z,24.71
2022-08-11T09:25:50.262Z,24.73
2022-08-11T09:28:37.554Z,24.94
2022-08-11T09:31:22.906Z,25.03
2022-08-11T09:34:11.162Z,25.09
2022-08-11T09:37:28.551Z,25.22
2022-08-11T09:40:31.055Z,25.44
2022-08-11T09:43:37.569Z,25.61
2022-08-11T09:46:29.189Z,25.71
2022-08-11T09:49:14.254Z,25.77
2022-08-11T09:52:05.330Z,25.87
2022-08-11T09:54:51.425Z,25.99
2022-08-11T09:57:58.349Z,26.13
2022-08-11T10:00:47.645Z,26.32
2022-08-11T10:03:40.254Z,26.47
2022-08-11T10:06:47.452Z,26.51
2022-08-11T10:09:54.526Z,26.61
2022-08-11T10:12:46.658Z,26.71
2022-08-11T10:15:38.134Z,26.86
2022-08-11T10:18:42.912Z,26.90
2022-08-11T10:21:36.169Z,27.04
2022-08-11T10:24:40.446Z,27.14
2022-08-11T10:28:30.739Z,27.21
2022-08-11T10:30:51.801Z,27.37
2022-08-11T10:33:59.482Z,27.51
2022-08-11T10:36:49.513Z,27.60
2022-08-11T10:39:35.831Z,27.76
2022-08-11T10:42:57.455Z,27.84
2022-08-11T10:46:05.258Z,27.98
2022-08-11T10:48:50.724Z,28.12
2022-08-11T10:51:58.581Z,28.23
2022-08-11T10:55:02.984Z,28.33
2022-08-11T10:58:07.256Z,28.53
2022-08-11T11:00:56.859Z,28.75
2022-08-11T11:03:43.572Z,28.76
2022-08-11T11:06:56.163Z,28.87
2022-08-11T11:09:47.229Z,28.93
2022-08-11T11:13:06.449Z,29.07
2022-08-11T11:16:30.757Z,29.14
2022-08-11T11:19:23.916Z,29.34
2022-08-11T11:22:30.869Z,29.41
2022-08-11T11:25:24.813Z,29.59
2022-08-11T11:28:24.320Z,29.74
2022-08-11T11:31:58.470Z,29.87
2022-08-11T11:35:04.370Z,30.09
2022-08-11T11:37:56.101Z,30.20
2022-08-11T11:41:10.552Z,30.25
2022-08-11T11:43:57.291Z,30.36
2022-08-11T11:46:47.337Z,30.47
2022-08-11T11:49:33.312Z,30.58
2022-08-11T11:52:21.782Z,30.76
2022-08-11T11:55:07.775Z,30.84
2022-08-11T11:58:18.656Z,30.86
2022-08-11T12:01:16.875Z,30.97
2022-08-11T12:04:06.080Z,31.07
2022-08-11T12:07:11.868Z,31.24
2022-08-11T12:09:58.432Z,31.31
2022-08-11T12:13:04.083Z,31.54
2022-08-11T12:16:32.075Z,31.67
2022-08-11T12:19:00.622Z,31.78
2022-08-11T12:22:05.273Z,31.72
2022-08-11T12:25:09.020Z,31.85
2022-08-11T12:27:55.874Z,31.90
2022-08-11T12:33:34.132Z,32.26
2022-08-11T12:36:21.453Z,32.28
2022-08-11T12:39:23.006Z,32.47
2022-08-11T12:42:30.210Z,32.47
2022-08-11T12:45:27.875Z,32.57
2022-08-11T12:48:59.910Z,32.61
2022-08-11T12:52:14.580Z,32.82
2022-08-11T12:55:42.881Z,32.99
2022-08-11T12:58:49.670Z,32.92
2022-08-11T13:01:55.919Z,33.13
2022-08-11T13:05:01.512Z,33.24
2022-08-11T13:07:50.675Z,33.36
2022-08-11T13:10:56.300Z,33.26
2022-08-11T13:13:53.994Z,33.50
2022-08-11T13:17:01.983Z,33.56
2022-08-11T13:19:49.790Z,33.72
2022-08-11T13:22:36.872Z,34.12
2022-08-11T13:25:25.508Z,34.08
2022-08-11T13:28:12.603Z,34.08
2022-08-11T13:31:14.866Z,34.17
2022-08-11T13:34:01.770Z,34.12
2022-08-11T13:36:52.993Z,34.20
2022-08-11T13:39:38.222Z,34.41
2022-08-11T13:42:23.339Z,34.41
2022-08-11T13:45:09.743Z,34.34
2022-08-11T13:48:00.033Z,34.24
2022-08-11T13:51:04.556Z,34.04
2022-08-11T13:53:49.897Z,33.98
2022-08-11T13:56:40.972Z,34.26
2022-08-11T13:59:29.831Z,34.25
2022-08-11T14:02:22.096Z,34.44
2022-08-11T14:05:17.384Z,34.41
2022-08-11T14:08:07.811Z,34.38
2022-08-11T14:12:23.159Z,34.64
2022-08-11T14:14:26.472Z,34.59
2022-08-11T14:17:13.779Z,34.39
2022-08-11T14:20:39.737Z,34.56
2022-08-11T14:23:33.854Z,34.59
2022-08-11T14:26:24.305Z,34.42
2022-08-11T14:32:12.061Z,34.54
2022-08-11T14:34:58.887Z,34.60
2022-08-11T14:37:44.430Z,34.54
2022-08-11T14:40:47.993Z,34.46
2022-08-11T14:44:13.051Z,34.52
2022-08-11T14:47:23.375Z,34.64
2022-08-11T14:50:14.561Z,34.39
2022-08-11T14:53:04.909Z,34.54
2022-08-11T14:56:10.184Z,34.54
2022-08-11T14:58:57.758Z,34.44
2022-08-11T15:02:04.370Z,34.42
2022-08-11T15:04:51.018Z,34.24
2022-08-11T15:07:37.599Z,34.09
2022-08-11T15:10:23.082Z,33.99
2022-08-11T15:13:08.601Z,34.04
2022-08-11T15:16:12.176Z,33.76
2022-08-11T15:18:58.922Z,33.37
2022-08-11T15:22:02.630Z,33.20
2022-08-11T15:24:47.937Z,32.73
2022-08-11T15:27:52.843Z,32.26
2022-08-11T15:30:57.474Z,31.95
2022-08-11T15:34:03.761Z,31.69
2022-08-11T15:37:09.445Z,31.58
2022-08-11T15:40:31.620Z,31.30
2022-08-11T15:43:46.149Z,31.26
2022-08-11T15:46:45.148Z,31.10
2022-08-11T15:50:11.421Z,30.94
2022-08-11T15:52:56.091Z,30.81
2022-08-11T15:55:43.431Z,30.53
2022-08-11T15:59:10.702Z,30.44
2022-08-11T16:02:32.697Z,30.25
2022-08-11T16:05:45.228Z,30.16
2022-08-11T16:08:32.611Z,30.05
2022-08-11T16:11:21.383Z,29.98
2022-08-11T16:14:29.590Z,29.93
2022-08-11T16:17:18.588Z,29.88
2022-08-11T16:20:05.574Z,29.79
2022-08-11T16:23:00.333Z,29.74
2022-08-11T16:27:06.891Z,29.62
2022-08-11T16:28:57.798Z,29.54
2022-08-11T16:32:03.865Z,29.52
2022-08-11T16:35:18.853Z,29.36
2022-08-11T16:38:24.600Z,29.28
2022-08-11T16:41:13.753Z,29.24
2022-08-11T16:44:17.509Z,29.16
2022-08-11T16:48:03.553Z,29.02
2022-08-11T16:50:25.505Z,28.94
2022-08-11T16:53:10.705Z,28.79
2022-08-11T16:56:00.029Z,28.76
2022-08-11T16:59:08.965Z,28.72
2022-08-11T17:01:58.006Z,28.61
2022-08-11T17:05:10.122Z,28.57
2022-08-11T17:08:16.948Z,28.50
2022-08-11T17:11:21.953Z,28.42
2022-08-11T17:14:12.945Z,28.30
2022-08-11T17:17:00.945Z,28.25
2022-08-11T17:20:40.770Z,28.09
2022-08-11T17:23:15.011Z,28.01
2022-08-11T17:26:04.401Z,27.80
2022-08-11T17:28:56.307Z,27.91
2022-08-11T17:32:00.275Z,27.86
2022-08-11T17:35:05.168Z,27.79
2022-08-11T17:37:52.361Z,27.64
2022-08-11T17:41:00.420Z,27.58
2022-08-11T17:44:06.269Z,27.53
2022-08-11T17:47:10.197Z,27.47
2022-08-11T17:49:56.274Z,27.36
2022-08-11T17:53:19.916Z,27.34
2022-08-11T17:56:24.824Z,27.23
2022-08-11T17:59:32.246Z,27.12
2022-08-11T18:02:40.052Z,27.12
2022-08-11T18:05:29.442Z,27.08
2022-08-11T18:08:34.095Z,26.96
2022-08-11T18:12:11.473Z,26.89
2022-08-11T18:15:06.985Z,26.86
2022-08-11T18:18:10.909Z,26.79
2022-08-11T18:21:14.671Z,26.70
2022-08-11T18:24:23.409Z,26.65
2022-08-11T18:27:30.147Z,26.61
2022-08-11T18:30:34.969Z,26.48
2022-08-11T18:34:05.814Z,26.43
2022-08-11T18:37:36.722Z,26.21
2022-08-11T18:40:47.734Z,26.24
2022-08-11T18:43:55.953Z,26.19
2022-08-11T18:47:08.073Z,26.07
2022-08-11T18:50:15.018Z,26.01
2022-08-11T18:53:32.721Z,25.94
2022-08-11T18:56:38.530Z,25.87
2022-08-11T18:59:45.774Z,25.79
2022-08-11T19:02:51.353Z,25.71
2022-08-11T19:06:35.982Z,25.66
2022-08-11T19:09:25.998Z,25.51
2022-08-11T19:12:31.172Z,25.50
2022-08-11T19:15:37.225Z,25.34
2022-08-11T19:18:41.788Z,25.33
2022-08-11T19:21:48.292Z,25.25
2022-08-11T19:24:55.619Z,25.18
2022-08-11T19:28:00.394Z,24.97
2022-08-11T19:31:05.233Z,24.98
2022-08-11T19:34:11.000Z,24.82
2022-08-11T19:37:15.222Z,24.73
2022-08-11T19:40:28.067Z,24.69
2022-08-11T19:43:32.214Z,24.60
2022-08-11T19:46:41.755Z,24.51
2022-08-11T19:49:45.346Z,24.36
2022-08-11T19:52:50.470Z,24.17
2022-08-11T19:55:54.550Z,24.14
2022-08-11T19:58:58.752Z,24.05
2022-08-11T20:02:13.307Z,23.93
2022-08-11T20:05:17.984Z,23.86
2022-08-11T20:08:23.815Z,23.70
2022-08-11T20:11:30.777Z,23.62
2022-08-11T20:14:37.682Z,23.49
2022-08-11T20:17:45.027Z,23.44
2022-08-11T20:20:49.690Z,23.40
2022-08-11T20:23:54.903Z,23.28
2022-08-11T20:26:58.745Z,23.19
2022-08-11T20:30:04.045Z,23.08
2022-08-11T20:33:09.338Z,23.10
2022-08-11T20:36:13.117Z,23.07
2022-08-11T20:39:18.609Z,22.98
2022-08-11T20:42:28.439Z,22.99
2022-08-11T20:45:35.887Z,22.97
2022-08-11T20:48:41.535Z,22.88
2022-08-11T20:51:46.357Z,22.70
2022-08-11T20:54:52.632Z,22.67
2022-08-11T20:58:04.039Z,22.62
2022-08-11T21:01:19.051Z,22.55
2022-08-11T21:04:28.025Z,22.48
2022-08-11T21:07:34.836Z,22.40
2022-08-11T21:10:40.864Z,22.31
2022-08-11T21:13:53.006Z,22.23
2022-08-11T21:17:00.328Z,22.14
2022-08-11T21:20:16.931Z,22.08
2022-08-11T21:23:28.326Z,21.95
2022-08-11T21:26:36.251Z,21.90
2022-08-11T21:29:42.070Z,21.82
2022-08-11T21:32:47.994Z,21.80
2022-08-11T21:35:51.833Z,21.72
2022-08-11T21:38:56.039Z,21.66
2022-08-11T21:41:59.822Z,21.56
2022-08-11T21:45:04.044Z,21.53
2022-08-11T21:48:10.024Z,21.55
2022-08-11T21:51:13.813Z,21.47
2022-08-11T21:54:19.029Z,21.43
2022-08-11T21:57:24.430Z,21.21
2022-08-11T22:00:28.662Z,21.25
2022-08-11T22:03:36.519Z,21.22
2022-08-11T22:06:54.087Z,21.09
2022-08-11T22:09:57.968Z,21.12
2022-08-11T22:13:01.992Z,21.02
2022-08-11T22:16:05.910Z,21.04
2022-08-11T22:19:10.724Z,20.96
2022-08-11T22:22:17.409Z,20.91
2022-08-11T22:25:22.491Z,20.90
2022-08-11T22:28:27.369Z,20.78
2022-08-11T22:31:31.746Z,20.69
2022-08-11T22:34:39.197Z,20.73
2022-08-11T22:37:58.705Z,20.59
2022-08-11T22:41:03.081Z,20.44
2022-08-11T22:44:07.024Z,20.48
2022-08-11T22:47:13.976Z,20.38
2022-08-11T22:50:23.555Z,20.35
2022-08-11T22:53:27.357Z,20.40
2022-08-11T22:56:52.507Z,20.34
2022-08-11T22:59:57.782Z,20.27
2022-08-11T23:03:01.613Z,20.26
2022-08-11T23:06:05.983Z,20.31
2022-08-11T23:09:11.367Z,20.20
2022-08-11T23:12:16.287Z,20.13
2022-08-11T23:15:19.943Z,20.02
2022-08-11T23:18:24.891Z,20.08
2022-08-11T23:21:32.244Z,19.94
2022-08-11T23:24:36.585Z,19.74
2022-08-11T23:27:42.317Z,19.70
2022-08-11T23:30:48.090Z,19.54
2022-08-11T23:33:55.467Z,19.36
2022-08-11T23:36:59.413Z,19.06
2022-08-11T23:40:03.144Z,18.90
2022-08-11T23:43:06.919Z,18.95
2022-08-11T23:46:10.702Z,18.86
2022-08-11T23:49:17.513Z,18.90
2022-08-11T23:52:22.425Z,18.92
2022-08-11T23:55:26.669Z,18.89
2022-08-11T23:58:30.366Z,18.83
